Lery, Canada
Current Conditions -  °F | °C
As of 1:15 PM on Thursday 23 Oct 2014 (Local Time) from CYUL Reporting Station
Light Rain Light Rain  
Wind Chill: 39°   Ceiling: 1500
Heat Index: 46°   Visibility: 8mi
Dew Point: 41°   Wind: 18mph
Humidity: 81%   Direction: 30°NNE
Pressure: 30.02"   Gusts: 25mph
Location:  45.33°N, 73.82°W
Report Text: CYUL 231715Z 03016G22KT 8SM -RA BKN015 OVC030 08/05 A3002 RMK SC5SC3 -RA INTMT SLP167
Loading
Personal Weather Stations






























Interactive Weather Map
Tropical Storm Tracking
New forecast layout! Learn more

10-Day Weather Forecast

Advertisements
Track Severe Weather on mobile